Time,TemperatureF,DewpointF,PressureIn,WindDirection,WindDirectionDegrees,WindSpeedMPH,WindSpeedGustMPH,Humidity,HourlyPrecipIn,Conditions,Clouds,dailyrainin,SoftwareType,DateUTC
2013-04-10 00:04:00,33.1,31.3,30.10,West,281,0.0,0.0,93,0.00,,,0.00,Wunderground v.1.15,2013-04-10 05:04:00,
2013-04-10 00:10:00,33.2,31.4,30.10,NNE,20,0.0,0.0,93,0.00,,,0.00,Wunderground v.1.15,2013-04-10 05:10:00,
2013-04-10 00:18:00,33.1,31.3,30.09,NNE,21,1.0,1.0,93,0.00,,,0.00,Wunderground v.1.15,2013-04-10 05:18:00,
2013-04-10 00:24:00,33.1,31.6,30.08,NNW,344,1.0,2.0,94,0.00,,,0.00,Wunderground v.1.15,2013-04-10 05:24:00,
2013-04-10 00:30:00,33.0,31.5,30.07,North,359,1.0,1.0,94,0.00,,,0.00,Wunderground v.1.15,2013-04-10 05:30:00,
2013-04-10 00:38:00,33.1,31.6,30.07,NNW,346,1.0,2.0,94,0.00,,,0.00,Wunderground v.1.15,2013-04-10 05:38:00,
2013-04-10 00:44:00,33.1,31.6,30.06,NNE,26,1.0,3.0,94,0.00,,,0.00,Wunderground v.1.15,2013-04-10 05:44:00,
2013-04-10 00:50:00,33.1,31.6,30.07,ESE,117,1.0,1.0,94,0.00,,,0.00,Wunderground v.1.15,2013-04-10 05:50:00,
2013-04-10 00:56:00,33.1,31.6,30.07,NW,305,1.0,1.0,94,0.00,,,0.00,Wunderground v.1.15,2013-04-10 05:56:00,
2013-04-10 01:02:00,33.1,31.6,30.07,NNW,342,0.0,1.0,94,0.00,,,0.00,Wunderground v.1.15,2013-04-10 06:02:00,
2013-04-10 01:08:00,33.1,31.6,30.07,North,11,0.0,1.0,94,0.00,,,0.00,Wunderground v.1.15,2013-04-10 06:08:00,
2013-04-10 01:14:00,33.1,31.6,30.06,NE,47,1.0,2.0,94,0.00,,,0.00,Wunderground v.1.15,2013-04-10 06:14:00,
2013-04-10 01:20:00,33.1,31.6,30.05,NE,47,1.0,1.0,94,0.00,,,0.00,Wunderground v.1.15,2013-04-10 06:20:00,
2013-04-10 01:26:00,33.1,31.6,30.05,North,357,1.0,1.0,94,0.00,,,0.00,Wunderground v.1.15,2013-04-10 06:26:00,
2013-04-10 01:32:00,33.1,31.6,30.04,NE,37,1.0,1.0,94,0.00,,,0.00,Wunderground v.1.15,2013-04-10 06:32:00,
2013-04-10 01:38:00,33.1,31.6,30.04,ENE,65,0.0,1.0,94,0.00,,,0.00,Wunderground v.1.15,2013-04-10 06:38:00,
2013-04-10 01:44:00,33.1,31.6,30.06,North,350,0.0,0.0,94,0.00,,,0.00,Wunderground v.1.15,2013-04-10 06:44:00,
2013-04-10 01:50:00,33.1,31.6,30.06,NNW,340,0.0,0.0,94,0.00,,,0.00,Wunderground v.1.15,2013-04-10 06:50:00,
2013-04-10 01:56:00,33.2,31.7,30.07,NNW,342,0.0,4.0,94,0.00,,,0.00,Wunderground v.1.15,2013-04-10 06:56:00,
2013-04-10 02:02:00,33.2,31.7,30.06,NNW,342,0.0,0.0,94,0.00,,,0.00,Wunderground v.1.15,2013-04-10 07:02:00,
2013-04-10 02:08:00,33.2,31.7,30.06,NNE,19,0.0,0.0,94,0.00,,,0.00,Wunderground v.1.15,2013-04-10 07:08:00,
2013-04-10 02:14:00,33.2,31.7,30.07,NE,56,0.0,0.0,94,0.00,,,0.00,Wunderground v.1.15,2013-04-10 07:14:00,
2013-04-10 02:20:00,33.2,31.7,30.08,NW,308,0.0,0.0,94,0.00,,,0.00,Wunderground v.1.15,2013-04-10 07:20:00,
2013-04-10 02:28:00,33.3,31.8,30.09,NNW,342,0.0,0.0,94,0.00,,,0.00,Wunderground v.1.15,2013-04-10 07:28:00,
2013-04-10 02:34:00,33.3,31.8,30.09,NNW,342,0.0,0.0,94,0.00,,,0.00,Wunderground v.1.15,2013-04-10 07:34:00,
2013-04-10 02:40:00,33.3,31.8,30.09,NNW,342,0.0,0.0,94,0.00,,,0.00,Wunderground v.1.15,2013-04-10 07:40:00,
2013-04-10 02:46:00,33.3,31.8,30.09,NNW,342,0.0,0.0,94,0.00,,,0.00,Wunderground v.1.15,2013-04-10 07:46:00,
2013-04-10 02:52:00,33.4,31.9,30.10,NW,322,0.0,0.0,94,0.00,,,0.00,Wunderground v.1.15,2013-04-10 07:52:00,
2013-04-10 02:58:00,33.5,32.0,30.11,NE,53,0.0,3.0,94,0.00,,,0.00,Wunderground v.1.15,2013-04-10 07:58:00,
2013-04-10 03:04:00,33.5,32.0,30.12,NW,316,1.0,2.0,94,0.00,,,0.00,Wunderground v.1.15,2013-04-10 08:04:00,
2013-04-10 03:10:00,33.5,32.0,30.12,West,281,1.0,1.0,94,0.00,,,0.00,Wunderground v.1.15,2013-04-10 08:10:00,
2013-04-10 03:18:00,33.4,31.9,30.11,NW,315,1.0,1.0,94,0.00,,,0.00,Wunderground v.1.15,2013-04-10 08:18:00,
2013-04-10 03:24:00,33.4,31.9,30.12,North,9,1.0,1.0,94,0.00,,,0.00,Wunderground v.1.15,2013-04-10 08:24:00,
2013-04-10 03:30:00,33.3,31.8,30.11,NW,317,1.0,1.0,94,0.00,,,0.00,Wunderground v.1.15,2013-04-10 08:30:00,
2013-04-10 03:36:00,33.3,31.8,30.11,NNE,13,1.0,1.0,94,0.00,,,0.00,Wunderground v.1.15,2013-04-10 08:36:00,
2013-04-10 03:42:00,33.2,31.9,30.11,North,4,1.0,1.0,95,0.00,,,0.00,Wunderground v.1.15,2013-04-10 08:42:00,
2013-04-10 03:48:00,33.2,31.9,30.12,NNE,13,1.0,3.0,95,0.00,,,0.00,Wunderground v.1.15,2013-04-10 08:48:00,
2013-04-10 03:54:00,33.2,31.9,30.11,NW,305,1.0,1.0,95,0.00,,,0.00,Wunderground v.1.15,2013-04-10 08:54:00,
2013-04-10 04:00:00,33.1,31.8,30.11,NNE,29,1.0,1.0,95,0.00,,,0.00,Wunderground v.1.15,2013-04-10 09:00:00,
2013-04-10 04:08:00,33.1,31.8,30.11,NNE,31,1.0,2.0,95,0.00,,,0.00,Wunderground v.1.15,2013-04-10 09:08:00,
2013-04-10 04:14:00,33.1,31.6,30.10,NE,43,2.0,2.0,94,0.00,,,0.00,Wunderground v.1.15,2013-04-10 09:14:00,
2013-04-10 04:20:00,33.0,31.5,30.09,NNW,340,2.0,2.0,94,0.00,,,0.00,Wunderground v.1.15,2013-04-10 09:20:00,
2013-04-10 04:26:00,33.0,31.5,30.09,NE,49,2.0,2.0,94,0.00,,,0.00,Wunderground v.1.15,2013-04-10 09:26:00,
2013-04-10 04:32:00,33.0,31.5,30.08,NW,317,2.0,2.0,94,0.00,,,0.00,Wunderground v.1.15,2013-04-10 09:32:00,
2013-04-10 04:38:00,33.0,31.7,30.08,NNE,18,2.0,3.0,95,0.00,,,0.00,Wunderground v.1.15,2013-04-10 09:38:00,
2013-04-10 04:44:00,33.1,31.6,30.08,NNE,15,2.0,2.0,94,0.00,,,0.00,Wunderground v.1.15,2013-04-10 09:44:00,
2013-04-10 04:50:00,33.1,31.6,30.07,North,360,1.0,1.0,94,0.00,,,0.00,Wunderground v.1.15,2013-04-10 09:50:00,
2013-04-10 04:56:00,33.0,31.5,30.07,NNE,26,1.0,2.0,94,0.00,,,0.00,Wunderground v.1.15,2013-04-10 09:56:00,
2013-04-10 05:02:00,33.1,31.6,30.08,North,4,1.0,1.0,94,0.00,,,0.00,Wunderground v.1.15,2013-04-10 10:02:00,
2013-04-10 05:08:00,33.1,31.8,30.08,NE,39,0.0,1.0,95,0.00,,,0.00,Wunderground v.1.15,2013-04-10 10:08:00,
2013-04-10 05:14:00,33.1,31.6,30.08,NE,50,0.0,1.0,94,0.00,,,0.00,Wunderground v.1.15,2013-04-10 10:14:00,
2013-04-10 05:20:00,33.2,31.9,30.08,ENE,76,0.0,0.0,95,0.00,,,0.00,Wunderground v.1.15,2013-04-10 10:20:00,
2013-04-10 05:26:00,33.3,31.8,30.09,NE,47,0.0,0.0,94,0.00,,,0.00,Wunderground v.1.15,2013-04-10 10:26:00,
2013-04-10 05:32:00,33.3,31.8,30.09,NNW,333,0.0,1.0,94,0.00,,,0.00,Wunderground v.1.15,2013-04-10 10:32:00,
2013-04-10 05:38:00,33.4,31.9,30.09,NNE,20,1.0,4.0,94,0.00,,,0.00,Wunderground v.1.15,2013-04-10 10:38:00,
2013-04-10 05:44:00,33.4,31.9,30.09,East,91,1.0,1.0,94,0.00,,,0.00,Wunderground v.1.15,2013-04-10 10:44:00,
2013-04-10 05:50:00,33.4,31.9,30.09,NE,40,1.0,3.0,94,0.00,,,0.00,Wunderground v.1.15,2013-04-10 10:50:00,
2013-04-10 05:58:00,33.4,31.6,30.08,ENE,78,1.0,4.0,93,0.00,,,0.00,Wunderground v.1.15,2013-04-10 10:58:00,
2013-04-10 06:04:00,33.4,31.6,30.08,NE,39,1.0,2.0,93,0.00,,,0.00,Wunderground v.1.15,2013-04-10 11:04:00,
2013-04-10 06:10:00,33.4,31.6,30.07,ENE,64,2.0,2.0,93,0.00,,,0.00,Wunderground v.1.15,2013-04-10 11:10:00,
2013-04-10 06:16:00,33.4,31.3,30.07,NE,54,2.0,4.0,92,0.00,,,0.00,Wunderground v.1.15,2013-04-10 11:16:00,
2013-04-10 06:22:00,33.3,31.2,30.07,ENE,64,1.0,4.0,92,0.00,,,0.00,Wunderground v.1.15,2013-04-10 11:22:00,
2013-04-10 06:28:00,33.3,31.2,30.07,ENE,57,2.0,4.0,92,0.00,,,0.00,Wunderground v.1.15,2013-04-10 11:28:00,
2013-04-10 06:34:00,33.3,31.2,30.06,ENE,71,2.0,2.0,92,0.00,,,0.00,Wunderground v.1.15,2013-04-10 11:34:00,
2013-04-10 06:40:00,33.2,30.9,30.06,NNE,33,2.0,2.0,91,0.00,,,0.00,Wunderground v.1.15,2013-04-10 11:40:00,
2013-04-10 06:46:00,33.2,30.9,30.06,ENE,61,2.0,4.0,91,0.00,,,0.00,Wunderground v.1.15,2013-04-10 11:46:00,
2013-04-10 06:52:00,33.2,30.9,30.06,ENE,74,3.0,4.0,91,0.00,,,0.00,Wunderground v.1.15,2013-04-10 11:52:00,
2013-04-10 06:58:00,33.1,30.5,30.06,ENE,76,3.0,4.0,90,0.00,,,0.00,Wunderground v.1.15,2013-04-10 11:58:00,
2013-04-10 07:04:00,33.1,30.5,30.06,NNE,32,3.0,3.0,90,0.00,,,0.00,Wunderground v.1.15,2013-04-10 12:04:00,
2013-04-10 07:10:00,33.0,30.4,30.06,ENE,65,2.0,2.0,90,0.00,,,0.00,Wunderground v.1.15,2013-04-10 12:10:00,
2013-04-10 07:16:00,33.0,30.4,30.06,NE,50,1.0,3.0,90,0.00,,,0.00,Wunderground v.1.15,2013-04-10 12:16:00,
2013-04-10 07:22:00,32.9,30.3,30.06,NE,44,2.0,2.0,90,0.00,,,0.00,Wunderground v.1.15,2013-04-10 12:22:00,
2013-04-10 07:28:00,32.7,30.1,30.06,NE,53,2.0,3.0,90,0.00,,,0.00,Wunderground v.1.15,2013-04-10 12:28:00,
2013-04-10 07:34:00,32.7,30.4,30.05,ENE,66,2.0,2.0,91,0.00,,,0.00,Wunderground v.1.15,2013-04-10 12:34:00,
2013-04-10 07:40:00,32.6,30.3,30.05,NE,56,2.0,2.0,91,0.00,,,0.01,Wunderground v.1.15,2013-04-10 12:40:00,
2013-04-10 07:48:00,32.6,30.3,30.06,NNE,30,2.0,4.0,91,0.00,,,0.01,Wunderground v.1.15,2013-04-10 12:48:00,
2013-04-10 07:54:00,32.5,30.2,30.06,NNE,33,3.0,10.0,91,0.00,,,0.01,Wunderground v.1.15,2013-04-10 12:54:00,
2013-04-10 08:00:00,32.6,30.5,30.07,East,94,2.0,2.0,92,0.00,,,0.01,Wunderground v.1.15,2013-04-10 13:00:00,
2013-04-10 08:06:00,32.6,30.5,30.08,North,358,1.0,3.0,92,0.00,,,0.01,Wunderground v.1.15,2013-04-10 13:06:00,
2013-04-10 08:12:00,32.7,30.6,30.09,NE,52,1.0,2.0,92,0.00,,,0.01,Wunderground v.1.15,2013-04-10 13:12:00,
2013-04-10 08:18:00,32.7,30.6,30.10,NE,53,0.0,2.0,92,0.00,,,0.01,Wunderground v.1.15,2013-04-10 13:18:00,
2013-04-10 08:24:00,32.8,30.7,30.10,NE,49,1.0,2.0,92,0.00,,,0.01,Wunderground v.1.15,2013-04-10 13:24:00,
2013-04-10 08:30:00,32.8,30.7,30.11,ENE,64,1.0,2.0,92,0.00,,,0.01,Wunderground v.1.15,2013-04-10 13:30:00,
2013-04-10 08:36:00,32.9,30.8,30.12,East,79,1.0,2.0,92,0.00,,,0.01,Wunderground v.1.15,2013-04-10 13:36:00,
2013-04-10 08:42:00,33.0,30.9,30.12,ENE,68,1.0,1.0,92,0.00,,,0.01,Wunderground v.1.15,2013-04-10 13:42:00,
2013-04-10 08:48:00,33.1,31.0,30.13,NE,54,1.0,1.0,92,0.00,,,0.01,Wunderground v.1.15,2013-04-10 13:48:00,
2013-04-10 08:54:00,33.2,31.1,30.13,East,84,1.0,1.0,92,0.00,,,0.01,Wunderground v.1.15,2013-04-10 13:54:00,
2013-04-10 09:00:00,33.2,30.9,30.12,ENE,61,1.0,2.0,91,0.00,,,0.01,Wunderground v.1.15,2013-04-10 14:00:00,
2013-04-10 09:06:00,33.2,31.1,30.12,SE,127,2.0,2.0,92,0.00,,,0.01,Wunderground v.1.15,2013-04-10 14:06:00,
2013-04-10 09:12:00,33.4,31.3,30.11,NNE,18,1.0,1.0,92,0.00,,,0.02,Wunderground v.1.15,2013-04-10 14:12:00,
2013-04-10 09:18:00,33.7,31.6,30.10,NNE,15,0.0,2.0,92,0.00,,,0.02,Wunderground v.1.15,2013-04-10 14:18:00,
2013-04-10 09:24:00,33.9,31.8,30.09,NE,51,1.0,1.0,92,0.00,,,0.02,Wunderground v.1.15,2013-04-10 14:24:00,
2013-04-10 09:30:00,34.1,32.0,30.10,NE,39,1.0,2.0,92,0.00,,,0.02,Wunderground v.1.15,2013-04-10 14:30:00,
2013-04-10 09:36:00,34.1,31.7,30.10,ESE,112,1.0,2.0,91,0.00,,,0.02,Wunderground v.1.15,2013-04-10 14:36:00,
2013-04-10 09:42:00,34.1,31.7,30.09,WNW,288,2.0,4.0,91,0.00,,,0.02,Wunderground v.1.15,2013-04-10 14:42:00,
2013-04-10 09:48:00,34.3,31.9,30.09,East,89,2.0,4.0,91,0.00,,,0.02,Wunderground v.1.15,2013-04-10 14:48:00,
2013-04-10 09:54:00,34.3,31.7,30.08,SW,229,2.0,3.0,90,0.00,,,0.02,Wunderground v.1.15,2013-04-10 14:54:00,
2013-04-10 10:00:00,34.6,32.0,30.07,SE,145,2.0,2.0,90,0.00,,,0.02,Wunderground v.1.15,2013-04-10 15:00:00,
2013-04-10 10:06:00,34.7,31.8,30.05,East,82,2.0,2.0,89,0.00,,,0.02,Wunderground v.1.15,2013-04-10 15:06:00,
2013-04-10 10:12:00,34.9,32.0,30.06,NNE,21,3.0,5.0,89,0.00,,,0.03,Wunderground v.1.15,2013-04-10 15:12:00,
2013-04-10 10:18:00,35.1,32.2,30.06,ENE,64,3.0,5.0,89,0.00,,,0.03,Wunderground v.1.15,2013-04-10 15:18:00,
2013-04-10 10:24:00,35.2,32.0,30.06,SSW,200,3.0,4.0,88,0.00,,,0.03,Wunderground v.1.15,2013-04-10 15:24:00,
2013-04-10 10:30:00,35.3,32.1,30.05,NE,44,3.0,5.0,88,0.00,,,0.03,Wunderground v.1.15,2013-04-10 15:30:00,
2013-04-10 10:38:00,35.5,32.0,30.05,NNE,15,3.0,5.0,87,0.00,,,0.03,Wunderground v.1.15,2013-04-10 15:38:00,
2013-04-10 10:44:00,35.8,32.3,30.05,ENE,65,3.0,5.0,87,0.00,,,0.03,Wunderground v.1.15,2013-04-10 15:44:00,
2013-04-10 10:50:00,35.9,32.4,30.05,NE,46,3.0,3.0,87,0.00,,,0.03,Wunderground v.1.15,2013-04-10 15:50:00,
2013-04-10 10:56:00,36.2,32.7,30.05,East,82,3.0,4.0,87,0.00,,,0.03,Wunderground v.1.15,2013-04-10 15:56:00,
2013-04-10 11:02:00,36.3,32.5,30.05,ESE,110,4.0,4.0,86,0.00,,,0.03,Wunderground v.1.15,2013-04-10 16:02:00,
2013-04-10 11:08:00,36.5,32.4,30.06,SE,127,3.0,4.0,85,0.00,,,0.03,Wunderground v.1.15,2013-04-10 16:08:00,
2013-04-10 11:14:00,36.8,32.7,30.07,ESE,106,3.0,4.0,85,0.00,,,0.03,Wunderground v.1.15,2013-04-10 16:14:00,
2013-04-10 11:20:00,37.2,33.1,30.10,NNW,336,2.0,2.0,85,0.00,,,0.03,Wunderground v.1.15,2013-04-10 16:20:00,
2013-04-10 11:26:00,36.7,32.3,30.10,NE,44,3.0,5.0,84,0.00,,,0.03,Wunderground v.1.15,2013-04-10 16:26:00,
2013-04-10 11:32:00,36.4,32.0,30.11,NE,50,3.0,3.0,84,0.00,,,0.03,Wunderground v.1.15,2013-04-10 16:32:00,
2013-04-10 11:38:00,36.4,32.3,30.11,ENE,74,2.0,3.0,85,0.00,,,0.03,Wunderground v.1.15,2013-04-10 16:38:00,
2013-04-10 11:46:00,36.2,31.8,30.12,NE,36,2.0,5.0,84,0.00,,,0.03,Wunderground v.1.15,2013-04-10 16:46:00,
2013-04-10 11:52:00,36.1,31.7,30.12,NNE,31,2.0,3.0,84,0.00,,,0.03,Wunderground v.1.15,2013-04-10 16:52:00,
2013-04-10 11:58:00,36.1,31.7,30.13,NE,49,2.0,3.0,84,0.00,,,0.03,Wunderground v.1.15,2013-04-10 16:58:00,
2013-04-10 12:04:00,36.1,31.7,30.13,NE,56,2.0,5.0,84,0.00,,,0.03,Wunderground v.1.15,2013-04-10 17:04:00,
2013-04-10 12:10:00,36.1,31.7,30.12,East,81,2.0,2.0,84,0.00,,,0.03,Wunderground v.1.15,2013-04-10 17:10:00,
2013-04-10 12:16:00,36.3,31.9,30.11,NE,50,1.0,4.0,84,0.00,,,0.03,Wunderground v.1.15,2013-04-10 17:16:00,
2013-04-10 12:22:00,36.4,32.0,30.10,ENE,71,2.0,2.0,84,0.00,,,0.03,Wunderground v.1.15,2013-04-10 17:22:00,
2013-04-10 12:28:00,36.5,32.1,30.09,ENE,68,2.0,3.0,84,0.00,,,0.03,Wunderground v.1.15,2013-04-10 17:28:00,
2013-04-10 12:34:00,36.9,32.5,30.09,NE,54,1.0,2.0,84,0.00,,,0.03,Wunderground v.1.15,2013-04-10 17:34:00,
2013-04-10 12:40:00,37.2,32.5,30.09,North,356,1.0,4.0,83,0.00,,,0.03,Wunderground v.1.15,2013-04-10 17:40:00,
2013-04-10 12:46:00,37.5,32.5,30.09,East,97,2.0,4.0,82,0.00,,,0.03,Wunderground v.1.15,2013-04-10 17:46:00,
2013-04-10 12:52:00,37.9,32.9,30.09,NE,44,2.0,4.0,82,0.00,,,0.03,Wunderground v.1.15,2013-04-10 17:52:00,
2013-04-10 12:58:00,37.9,32.9,30.08,NW,309,3.0,5.0,82,0.00,,,0.03,Wunderground v.1.15,2013-04-10 17:58:00,
2013-04-10 13:04:00,38.2,32.9,30.08,North,3,2.0,3.0,81,0.00,,,0.03,Wunderground v.1.15,2013-04-10 18:04:00,
2013-04-10 13:10:00,38.6,33.6,30.08,ESE,113,1.0,2.0,82,0.00,,,0.03,Wunderground v.1.15,2013-04-10 18:10:00,
2013-04-10 13:18:00,38.7,33.4,30.07,ENE,77,2.0,3.0,81,0.00,,,0.03,Wunderground v.1.15,2013-04-10 18:18:00,
2013-04-10 13:24:00,38.9,33.3,30.08,East,87,1.0,2.0,80,0.00,,,0.03,Wunderground v.1.15,2013-04-10 18:24:00,
2013-04-10 13:30:00,38.7,33.1,30.08,NE,51,2.0,2.0,80,0.00,,,0.03,Wunderground v.1.15,2013-04-10 18:30:00,
2013-04-10 13:36:00,38.6,33.0,30.09,NE,40,2.0,4.0,80,0.00,,,0.03,Wunderground v.1.15,2013-04-10 18:36:00,
2013-04-10 13:42:00,38.3,32.7,30.09,North,349,2.0,4.0,80,0.00,,,0.03,Wunderground v.1.15,2013-04-10 18:42:00,
2013-04-10 13:48:00,38.2,32.6,30.09,ENE,69,2.0,4.0,80,0.00,,,0.03,Wunderground v.1.15,2013-04-10 18:48:00,
2013-04-10 13:54:00,38.4,32.8,30.09,ENE,77,2.0,2.0,80,0.00,,,0.03,Wunderground v.1.15,2013-04-10 18:54:00,
2013-04-10 14:00:00,38.7,33.4,30.09,NE,44,1.0,4.0,81,0.00,,,0.03,Wunderground v.1.15,2013-04-10 19:00:00,
2013-04-10 14:06:00,38.6,32.6,30.09,ENE,69,2.0,4.0,79,0.00,,,0.03,Wunderground v.1.15,2013-04-10 19:06:00,
2013-04-10 14:12:00,38.6,32.6,30.09,ENE,61,2.0,4.0,79,0.00,,,0.03,Wunderground v.1.15,2013-04-10 19:12:00,
2013-04-10 14:18:00,38.4,32.8,30.09,East,79,2.0,4.0,80,0.00,,,0.03,Wunderground v.1.15,2013-04-10 19:18:00,
2013-04-10 14:24:00,38.4,32.5,30.09,ENE,60,2.0,3.0,79,0.00,,,0.03,Wunderground v.1.15,2013-04-10 19:24:00,
2013-04-10 14:30:00,38.4,32.5,30.10,NNE,32,2.0,2.0,79,0.00,,,0.03,Wunderground v.1.15,2013-04-10 19:30:00,
2013-04-10 14:38:00,38.1,32.2,30.10,NE,49,2.0,4.0,79,0.00,,,0.03,Wunderground v.1.15,2013-04-10 19:38:00,
2013-04-10 14:44:00,38.3,32.4,30.11,NW,309,2.0,4.0,79,0.00,,,0.03,Wunderground v.1.15,2013-04-10 19:44:00,
2013-04-10 14:50:00,38.2,31.9,30.12,NNW,344,2.0,2.0,78,0.00,,,0.03,Wunderground v.1.15,2013-04-10 19:50:00,
2013-04-10 14:56:00,38.1,31.8,30.11,NNW,342,2.0,4.0,78,0.00,,,0.03,Wunderground v.1.15,2013-04-10 19:56:00,
2013-04-10 15:02:00,38.3,32.0,30.11,NW,308,1.0,2.0,78,0.00,,,0.03,Wunderground v.1.15,2013-04-10 20:02:00,
2013-04-10 15:08:00,38.5,32.6,30.11,NE,36,1.0,2.0,79,0.00,,,0.03,Wunderground v.1.15,2013-04-10 20:08:00,
2013-04-10 15:14:00,38.3,32.7,30.11,NNE,13,1.0,1.0,80,0.00,,,0.03,Wunderground v.1.15,2013-04-10 20:14:00,
2013-04-10 15:20:00,37.9,32.6,30.09,WNW,299,2.0,2.0,81,0.00,,,0.03,Wunderground v.1.15,2013-04-10 20:20:00,
2013-04-10 15:26:00,37.9,32.6,30.09,ENE,58,2.0,3.0,81,0.00,,,0.03,Wunderground v.1.15,2013-04-10 20:26:00,
2013-04-10 15:32:00,37.9,32.6,30.08,NE,53,2.0,2.0,81,0.00,,,0.03,Wunderground v.1.15,2013-04-10 20:32:00,
2013-04-10 15:38:00,38.1,32.5,30.07,NNE,25,2.0,2.0,80,0.00,,,0.03,Wunderground v.1.15,2013-04-10 20:38:00,
2013-04-10 15:44:00,38.1,32.2,30.06,NNE,12,2.0,3.0,79,0.00,,,0.03,Wunderground v.1.15,2013-04-10 20:44:00,
2013-04-10 15:50:00,38.5,32.6,30.06,ENE,72,2.0,2.0,79,0.00,,,0.03,Wunderground v.1.15,2013-04-10 20:50:00,
2013-04-10 15:56:00,38.9,32.6,30.06,ENE,65,2.0,5.0,78,0.00,,,0.03,Wunderground v.1.15,2013-04-10 20:56:00,
2013-04-10 16:02:00,39.3,32.7,30.06,NE,44,2.0,5.0,77,0.00,,,0.03,Wunderground v.1.15,2013-04-10 21:02:00,
2013-04-10 16:08:00,39.6,33.0,30.06,ESE,111,2.0,5.0,77,0.00,,,0.03,Wunderground v.1.15,2013-04-10 21:08:00,
2013-04-10 16:14:00,39.9,33.3,30.06,NE,50,2.0,2.0,77,0.00,,,0.03,Wunderground v.1.15,2013-04-10 21:14:00,
2013-04-10 16:20:00,40.1,33.1,30.07,North,11,1.0,1.0,76,0.00,,,0.03,Wunderground v.1.15,2013-04-10 21:20:00,
2013-04-10 16:26:00,40.2,32.9,30.06,ENE,70,1.0,4.0,75,0.00,,,0.03,Wunderground v.1.15,2013-04-10 21:26:00,
2013-04-10 16:34:00,40.3,32.7,30.06,SSE,147,1.0,2.0,74,0.00,,,0.03,Wunderground v.1.15,2013-04-10 21:34:00,
2013-04-10 16:40:00,40.6,32.6,30.06,ENE,61,1.0,1.0,73,0.00,,,0.03,Wunderground v.1.15,2013-04-10 21:40:00,
2013-04-10 16:46:00,40.8,32.5,30.06,SE,132,1.0,3.0,72,0.00,,,0.03,Wunderground v.1.15,2013-04-10 21:46:00,
2013-04-10 16:52:00,40.9,32.9,30.06,SSE,157,1.0,1.0,73,0.00,,,0.03,Wunderground v.1.15,2013-04-10 21:52:00,
2013-04-10 16:58:00,41.1,32.8,30.07,WNW,287,1.0,1.0,72,0.00,,,0.03,Wunderground v.1.15,2013-04-10 21:58:00,
2013-04-10 17:04:00,40.7,33.1,30.07,West,280,0.0,2.0,74,0.00,,,0.03,Wunderground v.1.15,2013-04-10 22:04:00,
2013-04-10 17:10:00,40.0,33.0,30.07,WNW,300,0.0,0.0,76,0.00,,,0.03,Wunderground v.1.15,2013-04-10 22:10:00,
2013-04-10 17:16:00,39.7,33.1,30.07,WNW,288,1.0,2.0,77,0.00,,,0.03,Wunderground v.1.15,2013-04-10 22:16:00,
2013-04-10 17:22:00,39.9,33.6,30.07,North,356,0.0,1.0,78,0.00,,,0.03,Wunderground v.1.15,2013-04-10 22:22:00,
2013-04-10 17:28:00,39.7,32.8,30.08,North,3,0.0,1.0,76,0.00,,,0.03,Wunderground v.1.15,2013-04-10 22:28:00,
2013-04-10 17:34:00,39.4,32.5,30.07,NNE,22,1.0,2.0,76,0.00,,,0.03,Wunderground v.1.15,2013-04-10 22:34:00,
2013-04-10 17:40:00,39.1,32.2,30.07,NW,314,1.0,1.0,76,0.00,,,0.03,Wunderground v.1.15,2013-04-10 22:40:00,
2013-04-10 17:46:00,38.9,32.3,30.08,NNE,23,0.0,1.0,77,0.00,,,0.03,Wunderground v.1.15,2013-04-10 22:46:00,
2013-04-10 17:52:00,38.8,32.2,30.08,NNW,345,0.0,0.0,77,0.00,,,0.03,Wunderground v.1.15,2013-04-10 22:52:00,
2013-04-10 17:58:00,38.9,32.3,30.07,NE,41,0.0,3.0,77,0.00,,,0.03,Wunderground v.1.15,2013-04-10 22:58:00,
2013-04-10 18:04:00,38.9,32.3,30.07,NNE,31,0.0,0.0,77,0.00,,,0.03,Wunderground v.1.15,2013-04-10 23:04:00,
2013-04-10 18:10:00,38.9,32.3,30.07,NNE,25,0.0,0.0,77,0.00,,,0.03,Wunderground v.1.15,2013-04-10 23:10:00,
2013-04-10 18:16:00,39.0,32.4,30.06,North,357,0.0,0.0,77,0.00,,,0.03,Wunderground v.1.15,2013-04-10 23:16:00,
2013-04-10 18:22:00,38.9,32.3,30.07,NNE,25,0.0,0.0,77,0.00,,,0.03,Wunderground v.1.15,2013-04-10 23:22:00,
2013-04-10 18:28:00,38.8,32.2,30.06,NNE,26,0.0,0.0,77,0.00,,,0.03,Wunderground v.1.15,2013-04-10 23:28:00,
2013-04-10 18:34:00,38.7,32.1,30.06,NNE,29,0.0,0.0,77,0.00,,,0.03,Wunderground v.1.15,2013-04-10 23:34:00,
2013-04-10 18:40:00,38.5,32.2,30.06,NNE,18,0.0,0.0,78,0.00,,,0.03,Wunderground v.1.15,2013-04-10 23:40:00,
2013-04-10 18:46:00,38.3,32.0,30.06,NNE,20,0.0,0.0,78,0.00,,,0.03,Wunderground v.1.15,2013-04-10 23:46:00,
2013-04-10 18:52:00,38.1,31.8,30.06,NNE,19,0.0,0.0,78,0.00,,,0.03,Wunderground v.1.15,2013-04-10 23:52:00,
2013-04-10 18:58:00,37.9,32.0,30.07,NW,324,0.0,1.0,79,0.00,,,0.03,Wunderground v.1.15,2013-04-10 23:58:00,
2013-04-10 19:04:00,37.8,32.2,30.07,WNW,297,0.0,0.0,80,0.00,,,0.03,Wunderground v.1.15,2013-04-11 00:04:00,
2013-04-10 19:10:00,37.7,31.8,30.08,West,279,0.0,0.0,79,0.00,,,0.03,Wunderground v.1.15,2013-04-11 00:10:00,
2013-04-10 19:16:00,37.5,31.6,30.08,West,276,0.0,0.0,79,0.00,,,0.03,Wunderground v.1.15,2013-04-11 00:16:00,
2013-04-10 19:22:00,37.4,31.5,30.07,NE,46,0.0,0.0,79,0.00,,,0.03,Wunderground v.1.15,2013-04-11 00:22:00,
2013-04-10 19:28:00,37.5,31.6,30.07,North,359,0.0,0.0,79,0.00,,,0.03,Wunderground v.1.15,2013-04-11 00:28:00,
2013-04-10 19:34:00,37.5,31.3,30.06,NNE,19,0.0,2.0,78,0.00,,,0.03,Wunderground v.1.15,2013-04-11 00:34:00,
2013-04-10 19:40:00,37.5,31.3,30.06,North,11,1.0,1.0,78,0.00,,,0.03,Wunderground v.1.15,2013-04-11 00:40:00,
2013-04-10 19:46:00,37.5,30.9,30.06,North,352,1.0,2.0,77,0.00,,,0.03,Wunderground v.1.15,2013-04-11 00:46:00,
2013-04-10 19:52:00,37.5,30.9,30.06,NE,51,1.0,1.0,77,0.00,,,0.03,Wunderground v.1.15,2013-04-11 00:52:00,
2013-04-10 19:58:00,37.4,30.8,30.06,NNE,20,1.0,2.0,77,0.00,,,0.03,Wunderground v.1.15,2013-04-11 00:58:00,
2013-04-10 20:04:00,37.3,30.7,30.06,NNE,15,1.0,2.0,77,0.00,,,0.03,Wunderground v.1.15,2013-04-11 01:04:00,
2013-04-10 20:10:00,37.0,30.8,30.06,NE,47,1.0,1.0,78,0.00,,,0.03,Wunderground v.1.15,2013-04-11 01:10:00,
2013-04-10 20:18:00,36.5,30.6,30.06,ENE,58,1.0,1.0,79,0.00,,,0.03,Wunderground v.1.15,2013-04-11 01:18:00,
2013-04-10 20:24:00,36.1,30.5,30.06,NE,46,1.0,1.0,80,0.00,,,0.03,Wunderground v.1.15,2013-04-11 01:24:00,
2013-04-10 20:30:00,35.8,30.5,30.06,NNE,32,0.0,1.0,81,0.00,,,0.03,Wunderground v.1.15,2013-04-11 01:30:00,
2013-04-10 20:38:00,35.5,30.5,30.06,NE,37,0.0,1.0,82,0.00,,,0.03,Wunderground v.1.15,2013-04-11 01:38:00,
2013-04-10 20:44:00,35.4,30.8,30.06,North,8,0.0,3.0,83,0.00,,,0.03,Wunderground v.1.15,2013-04-11 01:44:00,
2013-04-10 20:50:00,35.3,30.7,30.06,NE,42,0.0,0.0,83,0.00,,,0.03,Wunderground v.1.15,2013-04-11 01:50:00,
2013-04-10 20:56:00,35.1,30.8,30.05,NE,35,0.0,2.0,84,0.00,,,0.03,Wunderground v.1.15,2013-04-11 01:56:00,
2013-04-10 21:02:00,35.0,30.7,30.05,NE,36,0.0,0.0,84,0.00,,,0.03,Wunderground v.1.15,2013-04-11 02:02:00,
2013-04-10 21:08:00,34.7,30.4,30.05,NE,36,0.0,0.0,84,0.00,,,0.03,Wunderground v.1.15,2013-04-11 02:08:00,
2013-04-10 21:14:00,34.5,30.2,30.05,ENE,70,0.0,0.0,84,0.00,,,0.03,Wunderground v.1.15,2013-04-11 02:14:00,
2013-04-10 21:20:00,34.4,30.1,30.04,NE,49,0.0,0.0,84,0.00,,,0.03,Wunderground v.1.15,2013-04-11 02:20:00,
2013-04-10 21:26:00,34.4,29.8,30.05,NE,49,0.0,0.0,83,0.00,,,0.03,Wunderground v.1.15,2013-04-11 02:26:00,
2013-04-10 21:32:00,34.4,29.2,30.06,NNE,14,0.0,0.0,81,0.00,,,0.03,Wunderground v.1.15,2013-04-11 02:32:00,
2013-04-10 21:38:00,34.3,29.1,30.09,NNE,14,0.0,0.0,81,0.00,,,0.03,Wunderground v.1.15,2013-04-11 02:38:00,
2013-04-10 21:44:00,34.1,28.9,30.08,NNE,15,0.0,0.0,81,0.00,,,0.03,Wunderground v.1.15,2013-04-11 02:44:00,
2013-04-10 21:50:00,33.7,28.8,30.09,NNE,15,0.0,0.0,82,0.00,,,0.03,Wunderground v.1.15,2013-04-11 02:50:00,
2013-04-10 21:58:00,33.8,28.6,30.08,ENE,74,0.0,1.0,81,0.00,,,0.03,Wunderground v.1.15,2013-04-11 02:58:00,
2013-04-10 22:04:00,34.2,29.3,30.09,ENE,65,0.0,0.0,82,0.00,,,0.03,Wunderground v.1.15,2013-04-11 03:04:00,
2013-04-10 22:10:00,34.4,29.5,30.09,NNE,18,0.0,0.0,82,0.00,,,0.03,Wunderground v.1.15,2013-04-11 03:10:00,
2013-04-10 22:16:00,34.5,29.9,30.09,NNE,14,0.0,1.0,83,0.00,,,0.03,Wunderground v.1.15,2013-04-11 03:16:00,
2013-04-10 22:22:00,34.6,29.4,30.09,NE,37,0.0,0.0,81,0.00,,,0.03,Wunderground v.1.15,2013-04-11 03:22:00,
2013-04-10 22:28:00,34.8,29.0,30.09,NNE,13,1.0,1.0,79,0.00,,,0.03,Wunderground v.1.15,2013-04-11 03:28:00,
2013-04-10 22:34:00,35.0,28.2,30.10,NNW,335,1.0,1.0,76,0.00,,,0.03,Wunderground v.1.15,2013-04-11 03:34:00,
2013-04-10 22:40:00,35.2,28.4,30.10,North,352,1.0,3.0,76,0.00,,,0.03,Wunderground v.1.15,2013-04-11 03:40:00,
2013-04-10 22:46:00,35.1,28.0,30.10,West,269,1.0,3.0,75,0.00,,,0.03,Wunderground v.1.15,2013-04-11 03:46:00,
2013-04-10 22:52:00,34.9,27.8,30.10,NNE,13,1.0,3.0,75,0.00,,,0.03,Wunderground v.1.15,2013-04-11 03:52:00,
2013-04-10 22:58:00,34.7,27.6,30.09,North,357,1.0,3.0,75,0.00,,,0.03,Wunderground v.1.15,2013-04-11 03:58:00,
2013-04-10 23:00:00,34.7,27.6,30.09,NNE,22,2.0,2.0,75,0.00,,,0.03,Wunderground v.1.15,2013-04-11 04:00:00,
2013-04-10 23:02:00,34.6,27.8,30.09,NE,42,1.0,2.0,76,0.00,,,0.00,Wunderground v.1.15,2013-04-11 04:02:00,
2013-04-10 23:08:00,34.4,27.9,30.08,NE,38,1.0,2.0,77,0.00,,,0.00,Wunderground v.1.15,2013-04-11 04:08:00,
2013-04-10 23:10:00,34.4,27.9,30.08,NE,36,1.0,1.0,77,0.00,,,0.00,Wunderground v.1.15,2013-04-11 04:10:00,
2013-04-10 23:12:00,34.3,27.8,30.08,NNE,26,1.0,3.0,77,0.00,,,0.00,Wunderground v.1.15,2013-04-11 04:12:00,
2013-04-10 23:18:00,34.2,27.7,30.07,ENE,58,2.0,3.0,77,0.00,,,0.00,Wunderground v.1.15,2013-04-11 04:18:00,
2013-04-10 23:24:00,34.2,27.1,30.06,NE,38,2.0,2.0,75,0.00,,,0.00,Wunderground v.1.15,2013-04-11 04:24:00,
2013-04-10 23:30:00,34.1,26.7,30.06,NE,45,2.0,2.0,74,0.00,,,0.00,Wunderground v.1.15,2013-04-11 04:30:00,
2013-04-10 23:36:00,34.1,26.3,30.07,NE,49,1.0,2.0,73,0.00,,,0.00,Wunderground v.1.15,2013-04-11 04:36:00,
2013-04-10 23:42:00,34.1,26.0,30.07,NNW,336,2.0,2.0,72,0.00,,,0.00,Wunderground v.1.15,2013-04-11 04:42:00,
2013-04-10 23:48:00,34.1,26.0,30.07,ENE,72,1.0,2.0,72,0.00,,,0.00,Wunderground v.1.15,2013-04-11 04:48:00,
2013-04-10 23:54:00,34.1,26.0,30.06,ENE,60,1.0,2.0,72,0.00,,,0.00,Wunderground v.1.15,2013-04-11 04:54:00,